sensor_id;sensor_type;location;lat;lon;timestamp;temperature;humidity
13205;DHT22;6667;52.634;9.226;2024-03-29T00:00:34;7.90;99.90
13205;DHT22;6667;52.634;9.226;2024-03-29T00:03:00;7.80;99.90
13205;DHT22;6667;52.634;9.226;2024-03-29T00:05:26;7.90;99.90
13205;DHT22;6667;52.634;9.226;2024-03-29T00:07:51;7.90;99.90
13205;DHT22;6667;52.634;9.226;2024-03-29T00:10:17;8.00;99.90
13205;DHT22;6667;52.634;9.226;2024-03-29T00:12:44;8.00;99.90
13205;DHT22;6667;52.634;9.226;2024-03-29T00:15:10;7.90;99.90
13205;DHT22;6667;52.634;9.226;2024-03-29T00:17:36;7.90;99.90
13205;DHT22;6667;52.634;9.226;2024-03-29T00:20:02;8.00;99.90
13205;DHT22;6667;52.634;9.226;2024-03-29T00:22:28;8.00;99.90
13205;DHT22;6667;52.634;9.226;2024-03-29T00:24:54;8.00;99.90
13205;DHT22;6667;52.634;9.226;2024-03-29T00:27:20;8.10;99.90
13205;DHT22;6667;52.634;9.226;2024-03-29T00:29:47;8.10;99.90
13205;DHT22;6667;52.634;9.226;2024-03-29T00:32:12;8.10;99.90
13205;DHT22;6667;52.634;9.226;2024-03-29T00:34:38;8.10;99.90
13205;DHT22;6667;52.634;9.226;2024-03-29T00:37:04;8.20;99.90
13205;DHT22;6667;52.634;9.226;2024-03-29T00:39:30;8.10;99.90
13205;DHT22;6667;52.634;9.226;2024-03-29T00:41:55;8.20;99.90
13205;DHT22;6667;52.634;9.226;2024-03-29T00:44:21;8.20;99.90
13205;DHT22;6667;52.634;9.226;2024-03-29T00:46:48;8.10;99.90
13205;DHT22;6667;52.634;9.226;2024-03-29T00:49:14;8.20;99.90
13205;DHT22;6667;52.634;9.226;2024-03-29T00:51:40;8.00;99.90
13205;DHT22;6667;52.634;9.226;2024-03-29T00:54:05;8.00;99.90
13205;DHT22;6667;52.634;9.226;2024-03-29T00:56:31;8.00;99.90
13205;DHT22;6667;52.634;9.226;2024-03-29T00:58:57;8.10;99.90
13205;DHT22;6667;52.634;9.226;2024-03-29T01:01:23;8.10;99.90
13205;DHT22;6667;52.634;9.226;2024-03-29T01:03:50;8.00;99.90
13205;DHT22;6667;52.634;9.226;2024-03-29T01:06:15;8.00;99.90
13205;DHT22;6667;52.634;9.226;2024-03-29T01:08:41;8.00;99.90
13205;DHT22;6667;52.634;9.226;2024-03-29T01:11:07;7.90;99.90
13205;DHT22;6667;52.634;9.226;2024-03-29T01:13:33;8.00;99.90
13205;DHT22;6667;52.634;9.226;2024-03-29T01:15:58;7.90;99.90
13205;DHT22;6667;52.634;9.226;2024-03-29T01:18:24;7.80;99.90
13205;DHT22;6667;52.634;9.226;2024-03-29T01:20:51;7.80;99.90
13205;DHT22;6667;52.634;9.226;2024-03-29T01:23:17;7.80;99.90
13205;DHT22;6667;52.634;9.226;2024-03-29T01:25:43;7.80;99.90
13205;DHT22;6667;52.634;9.226;2024-03-29T01:28:08;7.80;99.90
13205;DHT22;6667;52.634;9.226;2024-03-29T01:30:34;7.70;99.90
13205;DHT22;6667;52.634;9.226;2024-03-29T01:33:00;7.70;99.90
13205;DHT22;6667;52.634;9.226;2024-03-29T01:35:25;7.60;99.90
13205;DHT22;6667;52.634;9.226;2024-03-29T01:37:53;7.50;99.90
13205;DHT22;6667;52.634;9.226;2024-03-29T01:40:18;7.50;99.90
13205;DHT22;6667;52.634;9.226;2024-03-29T01:42:44;7.60;99.90
13205;DHT22;6667;52.634;9.226;2024-03-29T01:45:10;7.50;99.90
13205;DHT22;6667;52.634;9.226;2024-03-29T01:47:39;7.40;99.90
13205;DHT22;6667;52.634;9.226;2024-03-29T01:50:06;7.30;99.90
13205;DHT22;6667;52.634;9.226;2024-03-29T01:52:33;7.40;99.90
13205;DHT22;6667;52.634;9.226;2024-03-29T01:55:01;7.30;99.90
13205;DHT22;6667;52.634;9.226;2024-03-29T01:57:28;7.30;99.90
13205;DHT22;6667;52.634;9.226;2024-03-29T01:59:54;7.20;99.90
13205;DHT22;6667;52.634;9.226;2024-03-29T02:02:22;7.20;99.90
13205;DHT22;6667;52.634;9.226;2024-03-29T02:04:49;7.10;99.90
13205;DHT22;6667;52.634;9.226;2024-03-29T02:07:16;7.10;99.90
13205;DHT22;6667;52.634;9.226;2024-03-29T02:09:43;7.00;99.90
13205;DHT22;6667;52.634;9.226;2024-03-29T02:12:10;7.00;99.90
13205;DHT22;6667;52.634;9.226;2024-03-29T02:14:37;7.00;99.90
13205;DHT22;6667;52.634;9.226;2024-03-29T02:17:05;7.10;99.90
13205;DHT22;6667;52.634;9.226;2024-03-29T02:19:30;7.00;99.90
13205;DHT22;6667;52.634;9.226;2024-03-29T02:21:59;7.00;99.90
13205;DHT22;6667;52.634;9.226;2024-03-29T02:24:28;7.00;99.90
13205;DHT22;6667;52.634;9.226;2024-03-29T02:26:56;7.00;99.90
13205;DHT22;6667;52.634;9.226;2024-03-29T02:29:23;7.00;99.90
13205;DHT22;6667;52.634;9.226;2024-03-29T02:31:50;7.00;99.90
13205;DHT22;6667;52.634;9.226;2024-03-29T02:34:16;7.00;99.90
13205;DHT22;6667;52.634;9.226;2024-03-29T02:36:44;6.90;99.90
13205;DHT22;6667;52.634;9.226;2024-03-29T02:39:11;6.80;99.90
13205;DHT22;6667;52.634;9.226;2024-03-29T02:41:39;6.80;99.90
13205;DHT22;6667;52.634;9.226;2024-03-29T02:44:05;6.70;99.90
13205;DHT22;6667;52.634;9.226;2024-03-29T02:46:32;6.70;99.90
13205;DHT22;6667;52.634;9.226;2024-03-29T02:48:58;6.70;99.90
13205;DHT22;6667;52.634;9.226;2024-03-29T02:51:24;6.80;99.90
13205;DHT22;6667;52.634;9.226;2024-03-29T02:53:51;6.70;99.90
13205;DHT22;6667;52.634;9.226;2024-03-29T02:56:16;6.60;99.90
13205;DHT22;6667;52.634;9.226;2024-03-29T02:58:48;6.60;99.90
13205;DHT22;6667;52.634;9.226;2024-03-29T03:01:13;6.60;99.90
13205;DHT22;6667;52.634;9.226;2024-03-29T03:03:40;6.70;99.90
13205;DHT22;6667;52.634;9.226;2024-03-29T03:06:06;6.70;99.90
13205;DHT22;6667;52.634;9.226;2024-03-29T03:08:32;6.80;99.90
13205;DHT22;6667;52.634;9.226;2024-03-29T03:11:17;6.70;99.90
13205;DHT22;6667;52.634;9.226;2024-03-29T03:13:43;6.70;99.90
13205;DHT22;6667;52.634;9.226;2024-03-29T03:16:10;6.80;99.90
13205;DHT22;6667;52.634;9.226;2024-03-29T03:18:37;7.00;99.90
13205;DHT22;6667;52.634;9.226;2024-03-29T03:21:03;7.00;99.90
13205;DHT22;6667;52.634;9.226;2024-03-29T03:23:30;7.00;99.90
13205;DHT22;6667;52.634;9.226;2024-03-29T03:25:56;7.00;99.90
13205;DHT22;6667;52.634;9.226;2024-03-29T03:28:23;7.10;99.90
13205;DHT22;6667;52.634;9.226;2024-03-29T03:30:49;7.10;99.90
13205;DHT22;6667;52.634;9.226;2024-03-29T03:33:17;7.10;99.90
13205;DHT22;6667;52.634;9.226;2024-03-29T03:35:44;7.00;99.90
13205;DHT22;6667;52.634;9.226;2024-03-29T03:38:10;7.10;99.90
13205;DHT22;6667;52.634;9.226;2024-03-29T03:40:37;7.20;99.90
13205;DHT22;6667;52.634;9.226;2024-03-29T03:43:05;7.30;99.90
13205;DHT22;6667;52.634;9.226;2024-03-29T03:45:34;7.30;99.90
13205;DHT22;6667;52.634;9.226;2024-03-29T03:48:01;7.40;99.90
13205;DHT22;6667;52.634;9.226;2024-03-29T03:50:28;7.40;99.90
13205;DHT22;6667;52.634;9.226;2024-03-29T03:52:56;7.30;99.90
13205;DHT22;6667;52.634;9.226;2024-03-29T03:55:22;7.40;99.90
13205;DHT22;6667;52.634;9.226;2024-03-29T03:57:48;7.40;99.90
13205;DHT22;6667;52.634;9.226;2024-03-29T04:00:14;7.50;99.90
13205;DHT22;6667;52.634;9.226;2024-03-29T04:02:41;7.40;99.90
13205;DHT22;6667;52.634;9.226;2024-03-29T04:05:07;7.40;99.90
13205;DHT22;6667;52.634;9.226;2024-03-29T04:07:35;7.40;99.90
13205;DHT22;6667;52.634;9.226;2024-03-29T04:10:01;7.60;99.90
13205;DHT22;6667;52.634;9.226;2024-03-29T04:12:29;7.60;99.90
13205;DHT22;6667;52.634;9.226;2024-03-29T04:14:54;7.60;99.90
13205;DHT22;6667;52.634;9.226;2024-03-29T04:17:22;7.50;99.90
13205;DHT22;6667;52.634;9.226;2024-03-29T04:19:48;7.60;99.90
13205;DHT22;6667;52.634;9.226;2024-03-29T04:22:15;7.60;99.90
13205;DHT22;6667;52.634;9.226;2024-03-29T04:24:42;7.60;99.90
13205;DHT22;6667;52.634;9.226;2024-03-29T04:27:08;7.60;99.90
13205;DHT22;6667;52.634;9.226;2024-03-29T04:29:34;7.50;99.90
13205;DHT22;6667;52.634;9.226;2024-03-29T04:32:00;7.60;99.90
13205;DHT22;6667;52.634;9.226;2024-03-29T04:34:26;7.60;99.90
13205;DHT22;6667;52.634;9.226;2024-03-29T04:36:53;7.70;99.90
13205;DHT22;6667;52.634;9.226;2024-03-29T04:39:20;7.80;99.90
13205;DHT22;6667;52.634;9.226;2024-03-29T04:41:47;7.80;99.90
13205;DHT22;6667;52.634;9.226;2024-03-29T04:44:23;7.80;99.90
13205;DHT22;6667;52.634;9.226;2024-03-29T04:46:50;7.80;99.90
13205;DHT22;6667;52.634;9.226;2024-03-29T04:49:19;7.90;99.90
13205;DHT22;6667;52.634;9.226;2024-03-29T04:51:48;7.90;99.90
13205;DHT22;6667;52.634;9.226;2024-03-29T04:54:15;7.90;99.90
13205;DHT22;6667;52.634;9.226;2024-03-29T04:56:42;7.90;99.90
13205;DHT22;6667;52.634;9.226;2024-03-29T04:59:10;8.00;99.90
13205;DHT22;6667;52.634;9.226;2024-03-29T05:01:36;8.00;99.90
13205;DHT22;6667;52.634;9.226;2024-03-29T05:04:03;8.00;99.90
13205;DHT22;6667;52.634;9.226;2024-03-29T05:06:31;7.90;99.90
13205;DHT22;6667;52.634;9.226;2024-03-29T05:08:58;8.00;99.90
13205;DHT22;6667;52.634;9.226;2024-03-29T05:11:24;8.00;99.90
13205;DHT22;6667;52.634;9.226;2024-03-29T05:13:51;8.00;99.90
13205;DHT22;6667;52.634;9.226;2024-03-29T05:16:19;8.00;99.90
13205;DHT22;6667;52.634;9.226;2024-03-29T05:18:47;8.00;99.90
13205;DHT22;6667;52.634;9.226;2024-03-29T05:21:13;8.10;99.90
13205;DHT22;6667;52.634;9.226;2024-03-29T05:23:40;8.10;99.90
13205;DHT22;6667;52.634;9.226;2024-03-29T05:26:07;8.20;99.90
13205;DHT22;6667;52.634;9.226;2024-03-29T05:28:33;8.20;99.90
13205;DHT22;6667;52.634;9.226;2024-03-29T05:31:11;8.40;99.90
13205;DHT22;6667;52.634;9.226;2024-03-29T05:33:39;8.40;99.90
13205;DHT22;6667;52.634;9.226;2024-03-29T05:36:06;8.40;99.90
13205;DHT22;6667;52.634;9.226;2024-03-29T05:38:35;8.40;99.90
13205;DHT22;6667;52.634;9.226;2024-03-29T05:41:02;8.40;99.90
13205;DHT22;6667;52.634;9.226;2024-03-29T05:43:29;8.50;99.90
13205;DHT22;6667;52.634;9.226;2024-03-29T05:45:57;8.60;99.90
13205;DHT22;6667;52.634;9.226;2024-03-29T05:48:25;8.80;99.90
13205;DHT22;6667;52.634;9.226;2024-03-29T05:50:53;8.90;99.90
13205;DHT22;6667;52.634;9.226;2024-03-29T05:53:20;8.90;99.90
13205;DHT22;6667;52.634;9.226;2024-03-29T05:55:47;8.90;99.90
13205;DHT22;6667;52.634;9.226;2024-03-29T05:58:13;8.90;99.90
13205;DHT22;6667;52.634;9.226;2024-03-29T06:00:44;8.90;99.90
13205;DHT22;6667;52.634;9.226;2024-03-29T06:03:10;9.00;99.90
13205;DHT22;6667;52.634;9.226;2024-03-29T06:05:39;9.00;99.90
13205;DHT22;6667;52.634;9.226;2024-03-29T06:08:08;9.10;99.90
13205;DHT22;6667;52.634;9.226;2024-03-29T06:10:34;9.10;99.90
13205;DHT22;6667;52.634;9.226;2024-03-29T06:13:01;9.10;99.90
13205;DHT22;6667;52.634;9.226;2024-03-29T06:15:32;9.00;99.90
13205;DHT22;6667;52.634;9.226;2024-03-29T06:18:17;9.00;99.90
13205;DHT22;6667;52.634;9.226;2024-03-29T06:20:44;8.90;99.90
13205;DHT22;6667;52.634;9.226;2024-03-29T06:23:12;8.90;99.90
13205;DHT22;6667;52.634;9.226;2024-03-29T06:25:39;8.70;99.90
13205;DHT22;6667;52.634;9.226;2024-03-29T06:28:06;8.70;99.90
13205;DHT22;6667;52.634;9.226;2024-03-29T06:30:33;8.50;99.90
13205;DHT22;6667;52.634;9.226;2024-03-29T06:32:59;8.40;99.90
13205;DHT22;6667;52.634;9.226;2024-03-29T06:35:28;8.40;99.90
13205;DHT22;6667;52.634;9.226;2024-03-29T06:37:55;8.30;99.90
13205;DHT22;6667;52.634;9.226;2024-03-29T06:40:23;8.30;99.90
13205;DHT22;6667;52.634;9.226;2024-03-29T06:42:50;8.20;99.90
13205;DHT22;6667;52.634;9.226;2024-03-29T06:45:16;8.20;99.90
13205;DHT22;6667;52.634;9.226;2024-03-29T06:47:43;8.10;99.90
13205;DHT22;6667;52.634;9.226;2024-03-29T06:50:10;8.10;99.90
13205;DHT22;6667;52.634;9.226;2024-03-29T06:52:36;8.10;99.90
13205;DHT22;6667;52.634;9.226;2024-03-29T06:55:03;8.10;99.90
13205;DHT22;6667;52.634;9.226;2024-03-29T06:57:31;8.10;99.90
13205;DHT22;6667;52.634;9.226;2024-03-29T06:59:58;8.10;99.90
13205;DHT22;6667;52.634;9.226;2024-03-29T07:02:25;8.00;99.90
13205;DHT22;6667;52.634;9.226;2024-03-29T07:04:51;8.00;99.90
13205;DHT22;6667;52.634;9.226;2024-03-29T07:07:18;8.00;99.90
13205;DHT22;6667;52.634;9.226;2024-03-29T07:09:44;7.90;99.90
13205;DHT22;6667;52.634;9.226;2024-03-29T07:12:11;7.90;99.90
13205;DHT22;6667;52.634;9.226;2024-03-29T07:14:39;7.90;99.90
13205;DHT22;6667;52.634;9.226;2024-03-29T07:17:06;7.80;99.90
13205;DHT22;6667;52.634;9.226;2024-03-29T07:19:32;7.80;99.90
13205;DHT22;6667;52.634;9.226;2024-03-29T07:21:59;7.80;99.90
13205;DHT22;6667;52.634;9.226;2024-03-29T07:24:26;7.80;99.90
13205;DHT22;6667;52.634;9.226;2024-03-29T07:26:53;7.80;99.90
13205;DHT22;6667;52.634;9.226;2024-03-29T07:29:19;7.80;99.90
13205;DHT22;6667;52.634;9.226;2024-03-29T07:31:47;7.80;99.90
13205;DHT22;6667;52.634;9.226;2024-03-29T07:34:14;7.80;99.90
13205;DHT22;6667;52.634;9.226;2024-03-29T07:36:42;7.80;99.90
13205;DHT22;6667;52.634;9.226;2024-03-29T07:39:08;7.80;99.90
13205;DHT22;6667;52.634;9.226;2024-03-29T07:41:35;7.80;99.90
13205;DHT22;6667;52.634;9.226;2024-03-29T07:44:01;7.80;99.90
13205;DHT22;6667;52.634;9.226;2024-03-29T07:46:32;7.80;99.90
13205;DHT22;6667;52.634;9.226;2024-03-29T07:49:00;7.80;99.90
13205;DHT22;6667;52.634;9.226;2024-03-29T07:51:27;7.80;99.90
13205;DHT22;6667;52.634;9.226;2024-03-29T07:53:54;7.80;99.90
13205;DHT22;6667;52.634;9.226;2024-03-29T07:56:20;7.80;99.90
13205;DHT22;6667;52.634;9.226;2024-03-29T07:58:50;7.80;99.90
13205;DHT22;6667;52.634;9.226;2024-03-29T08:01:18;7.80;99.90
13205;DHT22;6667;52.634;9.226;2024-03-29T08:03:45;7.80;99.90
13205;DHT22;6667;52.634;9.226;2024-03-29T08:06:13;7.80;99.90
13205;DHT22;6667;52.634;9.226;2024-03-29T08:08:42;7.80;99.90
13205;DHT22;6667;52.634;9.226;2024-03-29T08:11:08;7.90;99.90
13205;DHT22;6667;52.634;9.226;2024-03-29T08:13:35;7.90;99.90
13205;DHT22;6667;52.634;9.226;2024-03-29T08:16:02;7.90;99.90
13205;DHT22;6667;52.634;9.226;2024-03-29T08:18:31;7.90;99.90
13205;DHT22;6667;52.634;9.226;2024-03-29T08:20:57;7.90;99.90
13205;DHT22;6667;52.634;9.226;2024-03-29T08:23:26;7.90;99.90
13205;DHT22;6667;52.634;9.226;2024-03-29T08:25:53;8.00;1.00
13205;DHT22;6667;52.634;9.226;2024-03-29T08:28:21;8.10;99.90
13205;DHT22;6667;52.634;9.226;2024-03-29T08:30:57;8.20;40.10
13205;DHT22;6667;52.634;9.226;2024-03-29T08:33:24;8.20;99.90
13205;DHT22;6667;52.634;9.226;2024-03-29T08:35:51;8.20;1.00
13205;DHT22;6667;52.634;9.226;2024-03-29T08:38:17;8.20;1.00
13205;DHT22;6667;52.634;9.226;2024-03-29T08:40:45;8.20;1.00
13205;DHT22;6667;52.634;9.226;2024-03-29T08:43:13;8.20;26.90
13205;DHT22;6667;52.634;9.226;2024-03-29T08:45:41;8.20;99.90
13205;DHT22;6667;52.634;9.226;2024-03-29T08:48:08;8.20;99.90
13205;DHT22;6667;52.634;9.226;2024-03-29T08:50:34;8.20;1.00
13205;DHT22;6667;52.634;9.226;2024-03-29T08:53:01;8.20;1.00
13205;DHT22;6667;52.634;9.226;2024-03-29T08:55:28;8.30;1.00
13205;DHT22;6667;52.634;9.226;2024-03-29T08:57:56;8.30;99.90
13205;DHT22;6667;52.634;9.226;2024-03-29T09:00:23;8.30;99.90
13205;DHT22;6667;52.634;9.226;2024-03-29T09:02:50;8.30;1.00
13205;DHT22;6667;52.634;9.226;2024-03-29T09:05:17;8.30;1.00
13205;DHT22;6667;52.634;9.226;2024-03-29T09:07:44;8.40;1.00
13205;DHT22;6667;52.634;9.226;2024-03-29T09:10:11;8.40;1.00
13205;DHT22;6667;52.634;9.226;2024-03-29T09:12:38;8.30;1.00
13205;DHT22;6667;52.634;9.226;2024-03-29T09:15:06;8.40;99.90
13205;DHT22;6667;52.634;9.226;2024-03-29T09:17:38;8.50;99.90
13205;DHT22;6667;52.634;9.226;2024-03-29T09:20:05;8.60;99.90
13205;DHT22;6667;52.634;9.226;2024-03-29T09:22:32;8.60;99.90
13205;DHT22;6667;52.634;9.226;2024-03-29T09:24:59;8.70;1.00
13205;DHT22;6667;52.634;9.226;2024-03-29T09:27:27;8.80;99.90
13205;DHT22;6667;52.634;9.226;2024-03-29T09:29:54;8.90;1.00
13205;DHT22;6667;52.634;9.226;2024-03-29T09:32:22;9.10;1.00
13205;DHT22;6667;52.634;9.226;2024-03-29T09:34:50;9.30;99.90
13205;DHT22;6667;52.634;9.226;2024-03-29T09:37:16;9.40;71.30
13205;DHT22;6667;52.634;9.226;2024-03-29T09:39:45;9.70;62.90
13205;DHT22;6667;52.634;9.226;2024-03-29T09:42:16;9.80;48.30
13205;DHT22;6667;52.634;9.226;2024-03-29T09:44:44;9.90;52.10
13205;DHT22;6667;52.634;9.226;2024-03-29T09:47:14;10.10;38.90
13205;DHT22;6667;52.634;9.226;2024-03-29T09:49:42;10.20;37.10
13205;DHT22;6667;52.634;9.226;2024-03-29T09:52:10;10.30;25.00
13205;DHT22;6667;52.634;9.226;2024-03-29T09:54:38;10.40;28.20
13205;DHT22;6667;52.634;9.226;2024-03-29T09:57:05;10.40;32.30
13205;DHT22;6667;52.634;9.226;2024-03-29T09:59:32;10.30;24.00
13205;DHT22;6667;52.634;9.226;2024-03-29T10:02:00;10.30;99.90
13205;DHT22;6667;52.634;9.226;2024-03-29T10:04:30;10.30;99.90
13205;DHT22;6667;52.634;9.226;2024-03-29T10:06:59;10.40;99.90
13205;DHT22;6667;52.634;9.226;2024-03-29T10:09:25;10.50;25.10
13205;DHT22;6667;52.634;9.226;2024-03-29T10:11:54;10.50;50.80
13205;DHT22;6667;52.634;9.226;2024-03-29T10:14:21;10.50;1.00
13205;DHT22;6667;52.634;9.226;2024-03-29T10:16:50;10.60;1.00
13205;DHT22;6667;52.634;9.226;2024-03-29T10:19:17;10.60;1.00
13205;DHT22;6667;52.634;9.226;2024-03-29T10:21:44;10.70;1.00
13205;DHT22;6667;52.634;9.226;2024-03-29T10:24:13;10.90;1.00
13205;DHT22;6667;52.634;9.226;2024-03-29T10:26:40;11.00;1.00
13205;DHT22;6667;52.634;9.226;2024-03-29T10:29:07;11.10;1.00
13205;DHT22;6667;52.634;9.226;2024-03-29T10:31:34;11.10;1.00
13205;DHT22;6667;52.634;9.226;2024-03-29T10:34:03;11.10;1.00
13205;DHT22;6667;52.634;9.226;2024-03-29T10:36:30;11.20;1.00
13205;DHT22;6667;52.634;9.226;2024-03-29T10:39:01;11.40;1.00
13205;DHT22;6667;52.634;9.226;2024-03-29T10:41:30;11.50;1.00
13205;DHT22;6667;52.634;9.226;2024-03-29T10:44:02;11.80;1.00
13205;DHT22;6667;52.634;9.226;2024-03-29T10:46:31;12.00;99.90
13205;DHT22;6667;52.634;9.226;2024-03-29T10:48:57;12.10;1.00
13205;DHT22;6667;52.634;9.226;2024-03-29T10:51:24;12.10;99.90
13205;DHT22;6667;52.634;9.226;2024-03-29T10:53:52;12.00;99.90
13205;DHT22;6667;52.634;9.226;2024-03-29T10:56:21;12.00;99.90
13205;DHT22;6667;52.634;9.226;2024-03-29T10:58:53;12.00;99.90
13205;DHT22;6667;52.634;9.226;2024-03-29T11:01:23;11.90;99.90
13205;DHT22;6667;52.634;9.226;2024-03-29T11:03:53;12.00;99.90
13205;DHT22;6667;52.634;9.226;2024-03-29T11:06:23;12.00;99.90
13205;DHT22;6667;52.634;9.226;2024-03-29T11:08:52;12.00;99.90
13205;DHT22;6667;52.634;9.226;2024-03-29T11:11:22;11.90;99.90
13205;DHT22;6667;52.634;9.226;2024-03-29T11:13:56;12.00;99.90
13205;DHT22;6667;52.634;9.226;2024-03-29T11:16:24;12.00;99.90
13205;DHT22;6667;52.634;9.226;2024-03-29T11:18:52;11.90;99.90
13205;DHT22;6667;52.634;9.226;2024-03-29T11:21:19;11.90;99.90
13205;DHT22;6667;52.634;9.226;2024-03-29T11:23:49;11.90;99.90
13205;DHT22;6667;52.634;9.226;2024-03-29T11:26:16;11.90;99.90
13205;DHT22;6667;52.634;9.226;2024-03-29T11:28:48;11.80;99.90
13205;DHT22;6667;52.634;9.226;2024-03-29T11:31:17;11.80;99.90
13205;DHT22;6667;52.634;9.226;2024-03-29T11:33:45;11.80;99.90
13205;DHT22;6667;52.634;9.226;2024-03-29T11:36:15;11.80;99.90
13205;DHT22;6667;52.634;9.226;2024-03-29T11:38:44;11.80;99.90
13205;DHT22;6667;52.634;9.226;2024-03-29T11:41:12;11.80;99.90
13205;DHT22;6667;52.634;9.226;2024-03-29T11:43:39;11.80;99.90
13205;DHT22;6667;52.634;9.226;2024-03-29T11:46:08;11.80;1.00
13205;DHT22;6667;52.634;9.226;2024-03-29T11:48:37;11.80;1.00
13205;DHT22;6667;52.634;9.226;2024-03-29T11:51:05;11.90;99.90
13205;DHT22;6667;52.634;9.226;2024-03-29T11:53:33;11.90;99.90
13205;DHT22;6667;52.634;9.226;2024-03-29T11:56:01;11.80;99.90
13205;DHT22;6667;52.634;9.226;2024-03-29T11:58:30;11.80;1.00
13205;DHT22;6667;52.634;9.226;2024-03-29T12:00:57;11.70;1.00
13205;DHT22;6667;52.634;9.226;2024-03-29T12:03:26;11.70;1.00
13205;DHT22;6667;52.634;9.226;2024-03-29T12:05:56;11.70;1.00
13205;DHT22;6667;52.634;9.226;2024-03-29T12:08:28;11.70;1.00
13205;DHT22;6667;52.634;9.226;2024-03-29T12:10:55;11.80;1.00
13205;DHT22;6667;52.634;9.226;2024-03-29T12:13:21;11.80;1.00
13205;DHT22;6667;52.634;9.226;2024-03-29T12:15:48;11.80;1.00
13205;DHT22;6667;52.634;9.226;2024-03-29T12:18:15;11.70;1.00
13205;DHT22;6667;52.634;9.226;2024-03-29T12:20:43;11.70;1.00
13205;DHT22;6667;52.634;9.226;2024-03-29T12:23:13;11.70;1.00
13205;DHT22;6667;52.634;9.226;2024-03-29T12:25:40;11.90;1.00
13205;DHT22;6667;52.634;9.226;2024-03-29T12:28:06;12.00;1.00
13205;DHT22;6667;52.634;9.226;2024-03-29T12:30:33;12.20;1.00
13205;DHT22;6667;52.634;9.226;2024-03-29T12:33:02;12.30;1.00
13205;DHT22;6667;52.634;9.226;2024-03-29T12:35:29;12.30;1.00
13205;DHT22;6667;52.634;9.226;2024-03-29T12:37:58;12.20;1.00
13205;DHT22;6667;52.634;9.226;2024-03-29T12:40:27;12.20;1.00
13205;DHT22;6667;52.634;9.226;2024-03-29T12:42:55;12.20;1.00
13205;DHT22;6667;52.634;9.226;2024-03-29T12:45:22;12.20;1.00
13205;DHT22;6667;52.634;9.226;2024-03-29T12:47:49;12.20;1.00
13205;DHT22;6667;52.634;9.226;2024-03-29T12:50:25;12.20;1.00
13205;DHT22;6667;52.634;9.226;2024-03-29T12:52:54;12.20;1.00
13205;DHT22;6667;52.634;9.226;2024-03-29T12:55:21;12.20;1.00
13205;DHT22;6667;52.634;9.226;2024-03-29T12:57:50;12.10;1.00
13205;DHT22;6667;52.634;9.226;2024-03-29T13:00:18;12.10;1.00
13205;DHT22;6667;52.634;9.226;2024-03-29T13:02:45;12.10;1.00
13205;DHT22;6667;52.634;9.226;2024-03-29T13:05:12;12.10;1.00
13205;DHT22;6667;52.634;9.226;2024-03-29T13:07:39;12.10;1.00
13205;DHT22;6667;52.634;9.226;2024-03-29T13:10:06;12.00;1.00
13205;DHT22;6667;52.634;9.226;2024-03-29T13:12:38;12.00;1.00
13205;DHT22;6667;52.634;9.226;2024-03-29T13:15:16;12.10;1.00
13205;DHT22;6667;52.634;9.226;2024-03-29T13:17:43;12.10;1.00
13205;DHT22;6667;52.634;9.226;2024-03-29T13:20:11;12.20;1.00
13205;DHT22;6667;52.634;9.226;2024-03-29T13:22:37;12.30;1.00
13205;DHT22;6667;52.634;9.226;2024-03-29T13:25:07;12.40;1.00
13205;DHT22;6667;52.634;9.226;2024-03-29T13:27:36;12.40;1.00
13205;DHT22;6667;52.634;9.226;2024-03-29T13:30:03;12.40;1.00
13205;DHT22;6667;52.634;9.226;2024-03-29T13:32:32;12.40;1.00
13205;DHT22;6667;52.634;9.226;2024-03-29T13:34:59;12.40;1.00
13205;DHT22;6667;52.634;9.226;2024-03-29T13:37:25;12.30;1.00
13205;DHT22;6667;52.634;9.226;2024-03-29T13:39:52;12.30;1.00
13205;DHT22;6667;52.634;9.226;2024-03-29T13:42:19;12.40;1.00
13205;DHT22;6667;52.634;9.226;2024-03-29T13:44:48;12.30;1.00
13205;DHT22;6667;52.634;9.226;2024-03-29T13:47:15;12.40;1.00
13205;DHT22;6667;52.634;9.226;2024-03-29T13:49:45;12.50;1.00
13205;DHT22;6667;52.634;9.226;2024-03-29T13:52:12;12.60;1.00
13205;DHT22;6667;52.634;9.226;2024-03-29T13:54:42;12.50;1.00
13205;DHT22;6667;52.634;9.226;2024-03-29T13:57:09;12.60;1.00
13205;DHT22;6667;52.634;9.226;2024-03-29T13:59:36;12.70;1.00
13205;DHT22;6667;52.634;9.226;2024-03-29T14:02:03;12.90;1.00
13205;DHT22;6667;52.634;9.226;2024-03-29T14:04:29;12.90;1.00
13205;DHT22;6667;52.634;9.226;2024-03-29T14:06:57;12.90;1.00
13205;DHT22;6667;52.634;9.226;2024-03-29T14:09:24;12.90;1.00
13205;DHT22;6667;52.634;9.226;2024-03-29T14:11:51;13.00;1.00
13205;DHT22;6667;52.634;9.226;2024-03-29T14:14:18;13.10;1.00
13205;DHT22;6667;52.634;9.226;2024-03-29T14:16:44;13.10;1.00
13205;DHT22;6667;52.634;9.226;2024-03-29T14:19:11;13.10;1.00
13205;DHT22;6667;52.634;9.226;2024-03-29T14:21:39;13.10;1.00
13205;DHT22;6667;52.634;9.226;2024-03-29T14:24:07;13.20;1.00
13205;DHT22;6667;52.634;9.226;2024-03-29T14:26:34;13.20;1.00
13205;DHT22;6667;52.634;9.226;2024-03-29T14:29:01;13.10;1.00
13205;DHT22;6667;52.634;9.226;2024-03-29T14:31:28;13.10;1.00
13205;DHT22;6667;52.634;9.226;2024-03-29T14:33:55;13.10;1.00
13205;DHT22;6667;52.634;9.226;2024-03-29T14:36:21;13.10;1.00
13205;DHT22;6667;52.634;9.226;2024-03-29T14:38:48;13.10;1.00
13205;DHT22;6667;52.634;9.226;2024-03-29T14:41:18;13.10;1.00
13205;DHT22;6667;52.634;9.226;2024-03-29T14:43:47;13.10;99.90
13205;DHT22;6667;52.634;9.226;2024-03-29T14:46:16;13.20;1.00
13205;DHT22;6667;52.634;9.226;2024-03-29T14:48:42;13.20;1.00
13205;DHT22;6667;52.634;9.226;2024-03-29T14:51:09;13.20;1.00
13205;DHT22;6667;52.634;9.226;2024-03-29T14:53:35;13.20;1.00
13205;DHT22;6667;52.634;9.226;2024-03-29T14:56:02;13.20;1.00
13205;DHT22;6667;52.634;9.226;2024-03-29T14:58:30;13.20;99.90
13205;DHT22;6667;52.634;9.226;2024-03-29T15:00:57;13.20;1.00
13205;DHT22;6667;52.634;9.226;2024-03-29T15:03:24;13.20;1.00
13205;DHT22;6667;52.634;9.226;2024-03-29T15:05:50;13.20;1.00
13205;DHT22;6667;52.634;9.226;2024-03-29T15:08:17;13.10;1.00
13205;DHT22;6667;52.634;9.226;2024-03-29T15:10:44;13.10;1.00
13205;DHT22;6667;52.634;9.226;2024-03-29T15:13:10;13.10;1.00
13205;DHT22;6667;52.634;9.226;2024-03-29T15:15:38;13.20;1.00
13205;DHT22;6667;52.634;9.226;2024-03-29T15:18:05;13.20;1.00
13205;DHT22;6667;52.634;9.226;2024-03-29T15:20:32;13.20;1.00
13205;DHT22;6667;52.634;9.226;2024-03-29T15:22:58;13.20;1.00
13205;DHT22;6667;52.634;9.226;2024-03-29T15:25:25;13.10;1.00
13205;DHT22;6667;52.634;9.226;2024-03-29T15:27:52;13.00;1.00
13205;DHT22;6667;52.634;9.226;2024-03-29T15:30:37;12.90;1.00
13205;DHT22;6667;52.634;9.226;2024-03-29T15:33:08;12.60;1.00
13205;DHT22;6667;52.634;9.226;2024-03-29T15:35:35;12.60;1.00
13205;DHT22;6667;52.634;9.226;2024-03-29T15:38:02;12.60;1.00
13205;DHT22;6667;52.634;9.226;2024-03-29T15:40:31;12.50;96.30
13205;DHT22;6667;52.634;9.226;2024-03-29T15:42:58;12.50;99.90
13205;DHT22;6667;52.634;9.226;2024-03-29T15:45:24;12.50;99.90
13205;DHT22;6667;52.634;9.226;2024-03-29T15:47:53;12.60;1.00
13205;DHT22;6667;52.634;9.226;2024-03-29T15:50:20;12.50;1.00
13205;DHT22;6667;52.634;9.226;2024-03-29T15:52:46;12.50;99.90
13205;DHT22;6667;52.634;9.226;2024-03-29T15:55:13;12.50;99.90
13205;DHT22;6667;52.634;9.226;2024-03-29T15:57:39;12.40;1.00
13205;DHT22;6667;52.634;9.226;2024-03-29T16:00:08;12.40;1.00